Cambridge, MN (55008)

01:46 CDT le 24 juillet 2016 (GMT -0500)
Cambridge - F5WX | | Change Station

Alt. 951 ft 45.56 °N, 93.21 °W | Updated 1 minute ago

Overcast
Couvert
71.2 ° F
Paraît 71.2 ° F
N
3.0
Vent Variable Vent de SSE
Gusts 8.0 mph

Aujourd'hui
Haut(e) -- | Bas -- ° F
--% Risque de précip.
Hier
Haut(e) -- | Bas -- ° F
Precip. -- pouce
Pression 29.74 pouce
Visibilité 10.0 Miles terrestres
Nuages Couvert 1200 ft
Point de rosée 68 ° F
Humidité 91%
Précipitations 0.00 pouce
Profondeur de la couche neigeuse Non disponible.
5:48 AM 8:49 PM
Lune gibbeuse décroissante, 79% visible
METAR KCBG 240636Z AUTO 13006KT 10SM OVC012 23/19 A2974 RMK AO2 LTG DSNT N AND NW
Pression 29.74 pouce
Visibilité 10.0 Miles terrestres
Nuages Couvert 1200 ft
Point de rosée 68 ° F
Humidité 91%
Précipitations 0.00 pouce
Profondeur de la couche neigeuse Non disponible.
5:48 AM 8:49 PM
Lune gibbeuse décroissante, 79% visible
METAR KCBG 240636Z AUTO 13006KT 10SM OVC012 23/19 A2974 RMK AO2 LTG DSNT N AND NW

10-Day Weather Forecast

Almanac

Astronomie

Jul. 24, 2016 Lever Coucher
Temps réel
Crépuscule civil
Crépuscule nautique
Crépuscule astronomique
Lune
Durée de lumière visible
Longueur du jour
Tomorrow will be .
, % of the Moon is Illuminated

Extrêmes aujourd'hui

State Highs State Lows

Community

WunderPhotos

Upload Photos

1,927,037 Photos téléchargées !

WunderBlog® & News

Nearby

Qualité de l'air

  Qualité de l'air Indice de la qualité de l'air Polluant
Not available.

Épaisseur de neige

Station Depth Altitude

Activité sismique

Ville Distance Mag. Time & Date
Minimum magnitude displayed is 2.5.

Températures des eaux côtières

Lieu Température

Stations

Stations météo à proximité

Emplacement de la station Température Refroidissement éolien Point de rosée Humidité Vent Precip. Alt. Mise à jour Type
                   

Watches & Warnings

There are currently no watches in effect.